Time;durP1;ratioP1;P1;durP2;ratioP2;P2;SDS_P1;SDS_P2;PMS_P1;PMS_P2;Temp;Humidity;BMP_temperature;BMP_pressure;BME280_temperature;BME280_humidity;BME280_pressure;Samples;Min_cycle;Max_cycle;Signal;HPM_P1;HPM_P2
2023/06/19 00:02:11;;;;;;;;;;;;;;;21.44;100.00;99676.13;5101013;28;19930;-73
2023/06/19 00:04:36;;;;;;;;;;;;;;;21.42;100.00;99673.66;5091230;28;20007;-74
2023/06/19 00:07:03;;;;;;;;;;;;;;;21.40;100.00;99670.34;5102045;28;19958;-74
2023/06/19 00:09:29;;;;;;;;;;;;;;;21.39;100.00;99674.06;5100570;28;19927;-74
2023/06/19 00:11:54;;;;;;;;;;;;;;;21.41;100.00;99672.00;5100861;28;19920;-74
2023/06/19 00:14:19;;;;;;;;;;;;;;;21.42;100.00;99670.13;5100680;28;19926;-74
2023/06/19 00:16:45;;;;;;;;;;;;;;;21.43;100.00;99678.00;5099254;28;19924;-74
2023/06/19 00:19:12;;;;;;;;;;;;;;;21.45;100.00;99678.59;5103092;28;19947;-74
2023/06/19 00:21:38;;;;;;;;;;;;;;;21.44;100.00;99679.63;5102090;28;19959;-74
2023/06/19 00:24:04;;;;;;;;;;;;;;;21.44;100.00;99676.94;5097935;28;19927;-73
2023/06/19 00:26:29;;;;;;;;;;;;;;;21.36;100.00;99679.84;5100288;28;19937;-76
2023/06/19 00:28:55;;;;;;;;;;;;;;;21.39;100.00;99687.47;5100525;28;20045;-74
2023/06/19 00:31:21;;;;;;;;;;;;;;;21.42;100.00;99688.94;5097398;28;19920;-73
2023/06/19 00:33:48;;;;;;;;;;;;;;;21.47;100.00;99691.81;5100304;28;19923;-76
2023/06/19 00:36:15;;;;;;;;;;;;;;;21.49;100.00;99679.84;5103391;28;19920;-77
2023/06/19 00:38:41;;;;;;;;;;;;;;;21.51;100.00;99691.19;5101321;28;19920;-76
2023/06/19 00:41:07;;;;;;;;;;;;;;;21.52;100.00;99689.31;5101704;28;19926;-76
2023/06/19 00:43:33;;;;;;;;;;;;;;;21.55;100.00;99695.09;5098307;28;19924;-74
2023/06/19 00:45:59;;;;;;;;;;;;;;;21.57;100.00;99701.06;5102080;28;19920;-74
2023/06/19 00:48:27;;;;;;;;;;;;;;;21.60;100.00;99694.47;5099963;28;19935;-74
2023/06/19 00:50:56;;;;;;;;;;;;;;;21.58;100.00;99699.22;5097709;28;19920;-74
2023/06/19 00:53:22;;;;;;;;;;;;;;;21.60;100.00;99703.34;5099754;28;20354;-73
2023/06/19 00:55:48;;;;;;;;;;;;;;;21.56;100.00;99699.41;5102931;28;19924;-72
2023/06/19 00:58:15;;;;;;;;;;;;;;;21.54;100.00;99704.19;5131263;27;19924;-74
2023/06/19 01:00:40;;;;;;;;;;;;;;;21.50;100.00;99707.53;5098269;28;20481;-74
2023/06/19 01:03:06;;;;;;;;;;;;;;;21.50;100.00;99708.31;5095749;28;20510;-74
2023/06/19 01:05:33;;;;;;;;;;;;;;;21.51;100.00;99709.97;5100431;28;19977;-74
2023/06/19 01:08:10;;;;;;;;;;;;;;;21.53;100.00;99707.91;5135042;27;19920;-74
2023/06/19 01:10:41;;;;;;;;;;;;;;;21.53;100.00;99713.28;5125532;27;20456;-74
2023/06/19 01:13:10;;;;;;;;;;;;;;;21.56;100.00;99712.84;5110504;28;19920;-74
2023/06/19 01:15:38;;;;;;;;;;;;;;;21.58;100.00;99721.53;5096057;28;20406;-74
2023/06/19 01:18:03;;;;;;;;;;;;;;;21.53;100.00;99724.03;5104032;28;19920;-74
2023/06/19 01:20:30;;;;;;;;;;;;;;;21.56;100.00;99731.66;5103626;28;20014;-74
2023/06/19 01:22:56;;;;;;;;;;;;;;;21.54;100.00;99730.22;5107075;28;20430;-75
2023/06/19 01:25:22;;;;;;;;;;;;;;;21.52;100.00;99733.09;5103431;28;19920;-73
2023/06/19 01:27:48;;;;;;;;;;;;;;;21.50;100.00;99740.53;5104276;28;20439;-73
2023/06/19 01:30:13;;;;;;;;;;;;;;;21.46;100.00;99728.56;5102803;28;19973;-74
2023/06/19 01:32:58;;;;;;;;;;;;;;;21.45;100.00;99724.22;5102535;28;20012;-74
2023/06/19 01:35:27;;;;;;;;;;;;;;;21.47;100.00;99730.22;5103371;28;19920;-74
2023/06/19 01:37:53;;;;;;;;;;;;;;;21.52;100.00;99727.72;5101734;28;19924;-74
2023/06/19 01:40:21;;;;;;;;;;;;;;;21.54;100.00;99725.69;5101039;28;19919;-74
2023/06/19 01:42:48;;;;;;;;;;;;;;;21.58;100.00;99716.16;5103923;28;20679;-73
2023/06/19 01:45:13;;;;;;;;;;;;;;;21.62;100.00;99711.19;5103357;28;20021;-75
2023/06/19 01:47:39;;;;;;;;;;;;;;;21.64;100.00;99709.94;5103269;28;19965;-74
2023/06/19 01:50:05;;;;;;;;;;;;;;;21.65;100.00;99703.53;5104750;28;19926;-74
2023/06/19 01:52:30;;;;;;;;;;;;;;;21.65;100.00;99700.88;5102056;28;19928;-75
2023/06/19 01:54:56;;;;;;;;;;;;;;;21.69;100.00;99700.41;5103938;28;19919;-73
2023/06/19 01:57:21;;;;;;;;;;;;;;;21.69;100.00;99695.88;5102659;28;19920;-74
2023/06/19 01:59:47;;;;;;;;;;;;;;;21.70;100.00;99697.53;5099236;28;19955;-74
2023/06/19 02:02:12;;;;;;;;;;;;;;;21.70;100.00;99692.16;5103819;28;19920;-74
2023/06/19 02:04:38;;;;;;;;;;;;;;;21.67;100.00;99694.47;5100410;28;20007;-74
2023/06/19 02:07:03;;;;;;;;;;;;;;;21.63;100.00;99696.72;5102823;28;19941;-74
2023/06/19 02:09:28;;;;;;;;;;;;;;;21.58;100.00;99699.22;5103400;28;19967;-74
2023/06/19 02:11:54;;;;;;;;;;;;;;;21.57;100.00;99693.03;5101637;28;19921;-73
2023/06/19 02:14:19;;;;;;;;;;;;;;;21.56;100.00;99696.72;5104409;28;20006;-74
2023/06/19 02:16:46;;;;;;;;;;;;;;;21.54;100.00;99698.81;5101660;28;20315;-75
2023/06/19 02:19:11;;;;;;;;;;;;;;;21.51;100.00;99699.22;5101479;28;19915;-75
2023/06/19 02:21:38;;;;;;;;;;;;;;;21.51;100.00;99703.78;5103621;28;19920;-76
2023/06/19 02:24:04;;;;;;;;;;;;;;;21.47;100.00;99698.00;5099717;28;19965;-74
2023/06/19 02:26:29;;;;;;;;;;;;;;;21.45;100.00;99693.88;5102370;28;19916;-75
2023/06/19 02:28:55;;;;;;;;;;;;;;;21.45;100.00;99700.06;5101923;28;20007;-75
2023/06/19 02:31:21;;;;;;;;;;;;;;;21.46;100.00;99703.56;5100519;28;20004;-73
2023/06/19 02:33:47;;;;;;;;;;;;;;;21.45;100.00;99705.44;5105501;28;20409;-76
2023/06/19 02:36:12;;;;;;;;;;;;;;;21.44;100.00;99706.47;5100915;28;19948;-77
2023/06/19 02:38:39;;;;;;;;;;;;;;;21.41;100.00;99714.94;5100853;28;19920;-76
2023/06/19 02:41:04;;;;;;;;;;;;;;;21.39;100.00;99717.00;5103037;28;20010;-73
2023/06/19 02:43:31;;;;;;;;;;;;;;;21.37;100.00;99708.34;5101472;28;19923;-74
2023/06/19 02:45:57;;;;;;;;;;;;;;;21.35;100.00;99707.72;5101977;28;20383;-75
2023/06/19 02:48:23;;;;;;;;;;;;;;;21.34;100.00;99706.06;5105591;28;20022;-74
2023/06/19 02:50:48;;;;;;;;;;;;;;;21.35;100.00;99709.59;5101218;28;19931;-75
2023/06/19 02:53:16;;;;;;;;;;;;;;;21.30;100.00;99707.53;5103876;28;19926;-75
2023/06/19 02:55:42;;;;;;;;;;;;;;;21.27;100.00;99707.94;5099947;28;20292;-75
2023/06/19 02:58:07;;;;;;;;;;;;;;;21.24;100.00;99706.50;5101227;28;19926;-75
2023/06/19 03:00:33;;;;;;;;;;;;;;;21.26;100.00;99714.34;5101801;28;19924;-74
2023/06/19 03:02:59;;;;;;;;;;;;;;;21.28;100.00;99716.81;5103063;28;19920;-74
2023/06/19 03:05:26;;;;;;;;;;;;;;;21.29;100.00;99713.09;5100473;28;19959;-75
2023/06/19 03:07:52;;;;;;;;;;;;;;;21.28;100.00;99703.41;5101241;28;20000;-75
2023/06/19 03:10:18;;;;;;;;;;;;;;;21.30;100.00;99701.34;5102764;28;19924;-75
2023/06/19 03:12:43;;;;;;;;;;;;;;;21.26;100.00;99709.00;5101524;28;20398;-73
2023/06/19 03:15:10;;;;;;;;;;;;;;;21.26;100.00;99705.47;5098603;28;19988;-74
2023/06/19 03:17:39;;;;;;;;;;;;;;;21.24;100.00;99714.56;5100144;28;19923;-75
2023/06/19 03:20:11;;;;;;;;;;;;;;;;;;5096744;28;19919;-75
2023/06/19 03:22:41;;;;;;;;;;;;;;;21.25;100.00;99699.28;5094659;28;20287;-74
2023/06/19 03:25:09;;;;;;;;;;;;;;;21.26;100.00;99700.13;5078410;28;19931;-75
2023/06/19 03:27:36;;;;;;;;;;;;;;;21.27;100.00;99702.56;5094382;28;19920;-74
2023/06/19 03:30:05;;;;;;;;;;;;;;;21.25;100.00;99693.91;5099577;28;19919;-74
2023/06/19 03:32:36;;;;;;;;;;;;;;;21.23;100.00;99698.66;5100729;28;19947;-74
2023/06/19 03:35:02;;;;;;;;;;;;;;;21.23;100.00;99690.59;5099614;28;19927;-74
2023/06/19 03:37:29;;;;;;;;;;;;;;;21.18;100.00;99696.59;5099406;28;19988;-74
2023/06/19 03:39:54;;;;;;;;;;;;;;;21.17;100.00;99696.81;5101850;28;19920;-74
2023/06/19 03:42:20;;;;;;;;;;;;;;;21.16;100.00;99689.78;5101755;28;19919;-74
2023/06/19 03:44:46;;;;;;;;;;;;;;;21.17;100.00;99697.63;5099488;28;20087;-75
2023/06/19 03:47:11;;;;;;;;;;;;;;;21.17;100.00;99691.44;5102859;28;19970;-75
2023/06/19 03:49:36;;;;;;;;;;;;;;;21.18;100.00;99698.47;5098914;28;19927;-75
2023/06/19 03:52:02;;;;;;;;;;;;;;;21.21;100.00;99698.03;5136650;22;19964;-82
2023/06/19 03:54:27;;;;;;;;;;;;;;;21.22;100.00;99694.31;5028828;28;19956;-83
2023/06/19 03:56:53;;;;;;;;;;;;;;;21.21;100.00;99692.66;5029502;28;20304;-82
2023/06/19 03:59:18;;;;;;;;;;;;;;;21.21;100.00;99690.81;5029598;28;20387;-84
2023/06/19 04:01:43;;;;;;;;;;;;;;;21.19;100.00;99684.00;5029152;28;19925;-82
2023/06/19 04:04:09;;;;;;;;;;;;;;;21.16;100.00;99679.88;5029258;28;19984;-83
2023/06/19 04:06:34;;;;;;;;;;;;;;;21.18;100.00;99679.69;5030249;28;19936;-83
2023/06/19 04:09:00;;;;;;;;;;;;;;;21.20;100.00;99680.31;5028665;28;20023;-83
2023/06/19 04:11:26;;;;;;;;;;;;;;;21.21;100.00;99681.94;5028616;28;19921;-84
2023/06/19 04:13:51;;;;;;;;;;;;;;;21.23;100.00;99698.66;5062020;28;19924;-83
2023/06/19 04:16:16;;;;;;;;;;;;;;;21.21;100.00;99698.03;5029017;28;20067;-84
2023/06/19 04:18:42;;;;;;;;;;;;;;;21.20;100.00;99696.41;5030276;28;19921;-84
2023/06/19 04:21:08;;;;;;;;;;;;;;;21.18;100.00;99703.81;5029545;28;19917;-84
2023/06/19 04:23:33;;;;;;;;;;;;;;;21.12;100.00;99707.31;5028679;28;20296;-82
2023/06/19 04:25:58;;;;;;;;;;;;;;;21.13;100.00;99695.53;5028899;28;20328;-83
2023/06/19 04:28:24;;;;;;;;;;;;;;;21.11;100.00;99702.97;5028427;28;20007;-83
2023/06/19 04:30:49;;;;;;;;;;;;;;;20.99;100.00;99704.63;5029841;28;19922;-83
2023/06/19 04:33:14;;;;;;;;;;;;;;;21.02;100.00;99704.22;5030298;28;19921;-83
2023/06/19 04:35:40;;;;;;;;;;;;;;;20.99;100.00;99704.63;5030203;28;19925;-82
2023/06/19 04:38:05;;;;;;;;;;;;;;;20.98;100.00;99697.59;5030303;28;19928;-81
2023/06/19 04:40:32;;;;;;;;;;;;;;;20.97;100.00;99710.19;5030025;28;20301;-84
2023/06/19 04:42:57;;;;;;;;;;;;;;;20.98;100.00;99711.84;5030198;28;20241;-83
2023/06/19 04:45:22;;;;;;;;;;;;;;;20.97;100.00;99702.13;5029194;28;19928;-83
2023/06/19 04:47:48;;;;;;;;;;;;;;;20.99;100.00;99720.72;5030137;28;20434;-84
2023/06/19 04:50:14;;;;;;;;;;;;;;;21.00;100.00;99706.28;5030125;28;20523;-84
2023/06/19 04:52:40;;;;;;;;;;;;;;;20.98;100.00;99708.31;5033654;28;19921;-83
2023/06/19 04:55:09;;;;;;;;;;;;;;;20.97;100.00;99714.75;5033183;28;19921;-83
2023/06/19 04:57:35;;;;;;;;;;;;;;;20.97;100.00;99733.53;5034182;28;19925;-83
2023/06/19 05:00:00;;;;;;;;;;;;;;;20.97;100.00;99717.44;5034401;28;19925;-83
2023/06/19 05:02:25;;;;;;;;;;;;;;;20.93;100.00;99726.91;5033707;28;19921;-82
2023/06/19 05:04:51;;;;;;;;;;;;;;;20.92;100.00;99725.25;5033937;28;19921;-82
2023/06/19 05:07:17;;;;;;;;;;;;;;;20.93;100.00;99721.53;5033797;28;19921;-83
2023/06/19 05:09:43;;;;;;;;;;;;;;;20.94;100.00;99724.03;5033760;28;19921;-83
2023/06/19 05:12:09;;;;;;;;;;;;;;;20.96;100.00;99721.13;5032649;28;19979;-83
2023/06/19 05:14:35;;;;;;;;;;;;;;;21.00;100.00;99719.69;5033218;28;20422;-83
2023/06/19 05:17:00;;;;;;;;;;;;;;;21.01;100.00;99713.28;5033791;28;20015;-83
2023/06/19 05:19:25;;;;;;;;;;;;;;;21.04;100.00;99711.00;5033838;28;20017;-83
2023/06/19 05:21:51;;;;;;;;;;;;;;;21.09;100.00;99711.22;5034105;28;20401;-82
2023/06/19 05:24:16;;;;;;;;;;;;;;;21.15;100.00;99714.97;5033652;28;20300;-83
2023/06/19 05:26:41;;;;;;;;;;;;;;;21.18;100.00;99709.19;5033303;28;20335;-83
2023/06/19 05:29:08;;;;;;;;;;;;;;;21.25;100.00;99701.97;5033473;28;19921;-83
2023/06/19 05:31:34;;;;;;;;;;;;;;;21.31;100.00;99706.50;5033157;28;19928;-81
2023/06/19 05:33:59;;;;;;;;;;;;;;;21.32;100.00;99705.47;5033415;28;20288;-83
2023/06/19 05:36:24;;;;;;;;;;;;;;;21.33;100.00;99711.63;5033241;28;19931;-83
2023/06/19 05:38:50;;;;;;;;;;;;;;;21.39;100.00;99706.28;5032879;28;19925;-84
2023/06/19 05:41:15;;;;;;;;;;;;;;;21.46;100.00;99717.00;5033264;28;19929;-82
2023/06/19 05:43:41;;;;;;;;;;;;;;;21.50;100.00;99729.78;5032764;28;19975;-82
2023/06/19 05:46:06;;;;;;;;;;;;;;;21.56;100.00;99723.59;5033325;28;19928;-82
2023/06/19 05:48:32;;;;;;;;;;;;;;;21.60;100.00;99721.31;5032855;28;19921;-82
2023/06/19 05:50:57;;;;;;;;;;;;;;;21.65;100.00;99725.03;5033135;28;19921;-82
2023/06/19 05:53:22;;;;;;;;;;;;;;;21.66;100.00;99723.16;5032688;28;19921;-81
2023/06/19 05:55:47;;;;;;;;;;;;;;;21.67;100.00;99718.63;5032744;28;19941;-82
2023/06/19 05:58:13;;;;;;;;;;;;;;;21.77;100.00;99724.38;5032766;28;19940;-82
2023/06/19 06:00:38;;;;;;;;;;;;;;;21.84;100.00;99725.19;5033234;28;19921;-82
2023/06/19 06:03:04;;;;;;;;;;;;;;;21.88;100.00;99731.78;5031026;28;19925;-83
2023/06/19 06:05:29;;;;;;;;;;;;;;;21.88;100.00;99731.78;5032504;28;19921;-82
2023/06/19 06:07:55;;;;;;;;;;;;;;;21.91;100.00;99731.38;5032462;28;19925;-82
2023/06/19 06:10:21;;;;;;;;;;;;;;;21.96;100.00;99740.47;5032675;28;19929;-82
2023/06/19 06:12:46;;;;;;;;;;;;;;;22.03;100.00;99745.84;5030210;28;19929;-78
2023/06/19 06:15:11;;;;;;;;;;;;;;;22.07;100.00;99747.06;5028843;28;19928;-80
2023/06/19 06:17:37;;;;;;;;;;;;;;;22.09;100.00;99744.97;5030684;28;19921;-81
2023/06/19 06:20:06;;;;;;;;;;;;;;;22.08;100.00;99739.81;5028965;28;19928;-80
2023/06/19 06:22:31;;;;;;;;;;;;;;;22.05;100.00;99755.31;5030708;28;19929;-81
2023/06/19 06:24:57;;;;;;;;;;;;;;;22.07;100.00;99754.28;5031085;28;20659;-80
2023/06/19 06:27:22;;;;;;;;;;;;;;;22.12;100.00;99755.31;5026562;28;20297;-81
2023/06/19 06:29:48;;;;;;;;;;;;;;;22.15;100.00;99764.81;5027813;28;19975;-80
2023/06/19 06:32:13;;;;;;;;;;;;;;;22.14;100.00;99758.59;5028403;28;19925;-78
2023/06/19 06:34:38;;;;;;;;;;;;;;;22.21;100.00;99761.25;5030701;28;19971;-84
2023/06/19 06:37:04;;;;;;;;;;;;;;;22.30;100.00;99763.50;5028103;28;19932;-84
2023/06/19 06:39:29;;;;;;;;;;;;;;;22.36;100.00;99768.03;5026469;28;20009;-85
2023/06/19 06:41:54;;;;;;;;;;;;;;;22.42;100.00;99769.03;5027313;28;19953;-83
2023/06/19 06:44:20;;;;;;;;;;;;;;;22.48;100.00;99764.66;5034296;28;20328;-84
2023/06/19 06:46:45;;;;;;;;;;;;;;;22.52;100.00;99757.81;5024039;28;19922;-83
2023/06/19 06:49:11;;;;;;;;;;;;;;;22.59;100.00;99770.19;5026643;28;19921;-84
2023/06/19 06:51:36;;;;;;;;;;;;;;;22.66;100.00;99767.47;5028256;28;20400;-84
2023/06/19 06:54:02;;;;;;;;;;;;;;;22.72;100.00;99769.31;5027401;28;20001;-83
2023/06/19 06:56:27;;;;;;;;;;;;;;;22.73;100.00;99770.97;5031668;28;19921;-84
2023/06/19 06:58:52;;;;;;;;;;;;;;;22.76;100.00;99776.72;5033823;28;20018;-84
2023/06/19 07:01:17;;;;;;;;;;;;;;;22.84;100.00;99781.88;5059946;28;20119;-83
2023/06/19 07:03:43;;;;;;;;;;;;;;;22.93;100.00;99768.97;5028981;28;19921;-83
2023/06/19 07:06:08;;;;;;;;;;;;;;;23.02;100.00;99764.16;5031666;28;19951;-84
2023/06/19 07:08:34;;;;;;;;;;;;;;;23.10;100.00;99769.25;5025072;28;20020;-84
2023/06/19 07:10:59;;;;;;;;;;;;;;;23.18;100.00;99769.81;5029283;28;20391;-83
2023/06/19 07:13:25;;;;;;;;;;;;;;;23.27;100.00;99776.56;5029763;28;20027;-83
2023/06/19 07:15:50;;;;;;;;;;;;;;;23.35;100.00;99769.28;5027125;28;20040;-83
2023/06/19 07:18:16;;;;;;;;;;;;;;;23.39;100.00;99773.16;5028502;28;19928;-82
2023/06/19 07:20:41;;;;;;;;;;;;;;;23.45;100.00;99769.59;5027266;28;19922;-83
2023/06/19 07:23:06;;;;;;;;;;;;;;;23.49;100.00;99773.53;5029705;28;19921;-83
2023/06/19 07:25:33;;;;;;;;;;;;;;;23.52;100.00;99768.53;5029972;28;20324;-83
2023/06/19 07:27:59;;;;;;;;;;;;;;;23.57;100.00;99771.38;5028379;28;19925;-81
2023/06/19 07:30:24;;;;;;;;;;;;;;;23.65;100.00;99778.34;5027648;28;19975;-82
2023/06/19 07:32:50;;;;;;;;;;;;;;;23.70;100.00;99783.06;5030402;28;20317;-82
2023/06/19 07:35:15;;;;;;;;;;;;;;;23.68;100.00;99777.91;5030707;28;19975;-83
2023/06/19 07:37:40;;;;;;;;;;;;;;;23.77;100.00;99781.13;5028784;28;19929;-81
2023/06/19 07:40:06;;;;;;;;;;;;;;;23.83;100.00;99783.78;5028000;28;19921;-81
2023/06/19 07:42:32;;;;;;;;;;;;;;;23.82;100.00;99779.41;5032249;28;20384;-81
2023/06/19 07:44:57;;;;;;;;;;;;;;;23.85;100.00;99779.00;5031451;28;20250;-81
2023/06/19 07:47:22;;;;;;;;;;;;;;;23.82;100.00;99779.41;5031106;28;20006;-81
2023/06/19 07:49:48;;;;;;;;;;;;;;;23.81;100.00;99788.53;5030425;28;19922;-81
2023/06/19 07:52:13;;;;;;;;;;;;;;;23.79;100.00;99785.28;5030351;28;19928;-81
2023/06/19 07:54:54;;;;;;;;;;;;;;;23.75;100.00;99778.66;5030259;28;19936;-81
2023/06/19 07:57:20;;;;;;;;;;;;;;;23.73;100.00;99783.47;5028501;28;20003;-81
2023/06/19 07:59:46;;;;;;;;;;;;;;;23.75;100.00;99794.81;5030288;28;19988;-83
2023/06/19 08:02:12;;;;;;;;;;;;;;;23.78;100.00;99786.31;5030637;28;19921;-81
2023/06/19 08:04:37;;;;;;;;;;;;;;;23.82;100.00;99782.13;5031491;28;19927;-79
2023/06/19 08:07:03;;;;;;;;;;;;;;;23.87;100.00;99784.97;5029006;28;19939;-79
2023/06/19 08:09:28;;;;;;;;;;;;;;;23.97;100.00;99788.00;5028472;28;19948;-80
2023/06/19 08:11:53;;;;;;;;;;;;;;;24.04;100.00;99777.94;5028460;28;19940;-81
2023/06/19 08:14:19;;;;;;;;;;;;;;;24.13;100.00;99783.03;5030432;28;19926;-81
2023/06/19 08:16:44;;;;;;;;;;;;;;;24.19;100.00;99783.00;5030137;28;19929;-80
2023/06/19 08:19:10;;;;;;;;;;;;;;;24.25;100.00;99781.25;5030117;28;19921;-81
2023/06/19 08:21:35;;;;;;;;;;;;;;;24.25;100.00;99774.00;5029924;28;20365;-80
2023/06/19 08:24:00;;;;;;;;;;;;;;;24.23;100.00;99781.47;5029719;28;19941;-80
2023/06/19 08:26:26;;;;;;;;;;;;;;;24.22;100.00;99769.03;5030189;28;19921;-81
2023/06/19 08:28:51;;;;;;;;;;;;;;;24.28;100.00;99773.53;5030079;28;19925;-80
2023/06/19 08:31:16;;;;;;;;;;;;;;;24.32;100.00;99771.22;5030317;28;19928;-80
2023/06/19 08:33:42;;;;;;;;;;;;;;;24.38;100.00;99767.63;5031091;28;19968;-80
2023/06/19 08:36:07;;;;;;;;;;;;;;;24.43;100.00;99765.06;5029791;28;20494;-81
2023/06/19 08:38:32;;;;;;;;;;;;;;;24.46;100.00;99756.50;5027819;28;20068;-80
2023/06/19 08:40:58;;;;;;;;;;;;;;;24.53;100.00;99754.53;5030251;28;19927;-81
2023/06/19 08:43:23;;;;;;;;;;;;;;;24.56;100.00;99755.97;5029933;28;19921;-81
2023/06/19 08:45:57;;;;;;;;;;;;;;;24.60;100.00;99755.28;5028527;28;19929;-81
2023/06/19 08:48:22;;;;;;;;;;;;;;;24.64;100.00;99759.16;5030387;28;19968;-81
2023/06/19 08:50:48;;;;;;;;;;;;;;;24.65;100.00;99752.72;5029812;28;19921;-81
2023/06/19 08:53:13;;;;;;;;;;;;;;;24.69;100.00;99747.66;5029609;28;19921;-81
2023/06/19 08:55:38;;;;;;;;;;;;;;;24.73;100.00;99749.72;5028802;28;19928;-81
2023/06/19 08:58:04;;;;;;;;;;;;;;;24.76;100.00;99743.84;5030224;28;20341;-81
2023/06/19 09:00:29;;;;;;;;;;;;;;;24.79;100.00;99743.38;5029893;28;19921;-81
2023/06/19 09:03:04;;;;;;;;;;;;;;;24.84;100.00;99746.22;5029938;28;19925;-81
2023/06/19 09:05:29;;;;;;;;;;;;;;;24.89;100.00;99742.84;5029965;28;19921;-81
2023/06/19 09:07:56;;;;;;;;;;;;;;;24.96;100.00;99743.56;5030549;28;20292;-81
2023/06/19 09:10:23;;;;;;;;;;;;;;;24.99;100.00;99739.56;5030212;28;20451;-81
2023/06/19 09:13:02;;;;;;;;;;;;;;;25.03;100.00;99736.19;5029526;28;19921;-81
2023/06/19 09:15:29;;;;;;;;;;;;;;;25.09;100.00;99742.56;5029588;28;19964;-81
2023/06/19 09:18:05;;;;;;;;;;;;;;;25.15;100.00;99744.31;5028850;28;19932;-81
2023/06/19 09:20:31;;;;;;;;;;;;;;;25.22;100.00;99747.72;5029891;28;19939;-80
2023/06/19 09:22:56;;;;;;;;;;;;;;;25.29;100.00;99741.16;5029470;28;20476;-81
2023/06/19 09:25:23;;;;;;;;;;;;;;;25.38;100.00;99735.41;5029351;28;19963;-81
2023/06/19 09:27:48;;;;;;;;;;;;;;;25.43;100.00;99733.66;5029342;28;19930;-80
2023/06/19 09:30:17;;;;;;;;;;;;;;;25.53;100.00;99738.47;5029519;28;20349;-79
2023/06/19 09:32:43;;;;;;;;;;;;;;;25.61;100.00;99736.25;5028407;28;20011;-81
2023/06/19 09:35:08;;;;;;;;;;;;;;;25.68;100.00;99742.34;5030811;28;20313;-81
2023/06/19 09:37:34;;;;;;;;;;;;;;;25.76;100.00;99737.66;5031458;28;19960;-80
2023/06/19 09:40:12;;;;;;;;;;;;;;;25.83;100.00;99739.19;5031850;28;20348;-80
2023/06/19 09:42:38;;;;;;;;;;;;;;;25.91;100.00;99735.28;5028917;28;19925;-81
2023/06/19 09:45:15;;;;;;;;;;;;;;;25.96;100.00;99744.34;5033163;28;20211;-81
2023/06/19 09:47:44;;;;;;;;;;;;;;;26.02;100.00;99742.56;5029417;28;20432;-81
2023/06/19 09:50:11;;;;;;;;;;;;;;;26.05;100.00;99739.34;5065300;28;19921;-81
2023/06/19 09:52:36;;;;;;;;;;;;;;;26.10;100.00;99744.88;5032657;28;19964;-81
2023/06/19 09:55:08;;;;;;;;;;;;;;;26.17;100.00;99742.03;5031252;28;19921;-81
2023/06/19 09:57:33;;;;;;;;;;;;;;;26.23;100.00;99744.63;5032438;28;19924;-80
2023/06/19 10:00:07;;;;;;;;;;;;;;;26.31;100.00;99746.97;5032904;28;19925;-80
2023/06/19 10:02:38;;;;;;;;;;;;;;;26.39;100.00;99743.88;5028802;28;19944;-81
2023/06/19 10:05:04;;;;;;;;;;;;;;;26.52;100.00;99750.06;5032988;28;20327;-80
2023/06/19 10:07:34;;;;;;;;;;;;;;;26.61;100.00;99737.78;5032439;28;19992;-81
2023/06/19 10:10:06;;;;;;;;;;;;;;;26.63;100.00;99739.19;5031979;28;20790;-81
2023/06/19 10:12:38;;;;;;;;;;;;;;;26.64;100.00;99740.81;5032546;28;20064;-80
2023/06/19 10:15:15;;;;;;;;;;;;;;;26.65;100.00;99741.66;5033694;28;20399;-81
2023/06/19 10:17:48;;;;;;;;;;;;;;;26.59;100.00;99732.63;5032490;28;20289;-81
2023/06/19 10:20:35;;;;;;;;;;;;;;;26.57;100.00;99733.94;5029473;28;19921;-81
2023/06/19 10:23:10;;;;;;;;;;;;;;;26.53;100.00;99728.16;5032150;28;19979;-81
2023/06/19 10:25:39;;;;;;;;;;;;;;;26.47;100.00;99735.38;5031831;28;19947;-81
2023/06/19 10:28:16;;;;;;;;;;;;;;;26.42;100.00;99743.41;5032215;28;19925;-81
2023/06/19 10:30:41;;;;;;;;;;;;;;;26.52;100.00;99741.94;5028794;28;19929;-81
2023/06/19 10:33:06;;;;;;;;;;;;;;;26.60;100.00;99739.69;5028262;28;19921;-81
2023/06/19 10:35:41;;;;;;;;;;;;;;;26.65;100.00;99736.25;5031919;28;19925;-81
2023/06/19 10:38:07;;;;;;;;;;;;;;;26.67;100.00;99736.81;5027988;28;19925;-81
2023/06/19 10:40:32;;;;;;;;;;;;;;;26.72;100.00;99745.84;5031788;28;19933;-81
2023/06/19 10:42:58;;;;;;;;;;;;;;;26.78;100.00;99739.47;5031750;28;19943;-80
2023/06/19 10:45:28;;;;;;;;;;;;;;;26.79;100.00;99737.59;5030754;28;19928;-81
2023/06/19 10:47:54;;;;;;;;;;;;;;;26.81;100.00;99738.16;5031873;28;19929;-81
2023/06/19 10:50:19;;;;;;;;;;;;;;;26.90;100.00;99736.72;5031857;28;19921;-80
2023/06/19 10:52:45;;;;;;;;;;;;;;;26.96;100.00;99733.03;5031216;28;20331;-80
2023/06/19 10:55:12;;;;;;;;;;;;;;;27.06;100.00;99738.63;5031782;28;19932;-81
2023/06/19 10:57:38;;;;;;;6.70;6.10;;;;;;;27.18;100.00;99731.25;5031123;28;20683;-81
2023/06/19 11:00:11;;;;;;;6.45;5.85;;;;;;;27.29;100.00;99729.50;5031317;28;20048;-81
2023/06/19 11:02:39;;;;;;;6.45;5.95;;;;;;;27.37;100.00;99725.56;5027526;28;20131;-80
2023/06/19 11:05:06;;;;;;;5.97;5.47;;;;;;;27.34;100.00;99726.88;5031382;28;20548;-82
2023/06/19 11:07:32;;;;;;;9.07;6.13;;;;;;;27.24;100.00;99730.25;5031050;28;20072;-82
2023/06/19 11:09:58;;;;;;;5.68;5.28;;;;;;;27.25;100.00;99728.38;5031094;28;20068;-82
2023/06/19 11:12:23;;;;;;;5.90;5.50;;;;;;;27.26;100.00;99727.31;5030652;28;20450;-80
2023/06/19 11:14:49;;;;;;;5.90;5.35;;;;;;;27.17;100.00;99710.63;5030480;28;20041;-81
2023/06/19 11:17:18;;;;;;;6.28;5.78;;;;;;;27.13;100.00;99712.19;5032113;28;20029;-80
2023/06/19 11:19:44;;;;;;;5.70;5.30;;;;;;;27.19;100.00;99711.22;5031019;28;20044;-81
2023/06/19 11:22:10;;;;;;;6.28;5.78;;;;;;;27.25;100.00;99704.81;5030810;28;20029;-81
2023/06/19 11:24:36;;;;;;;6.10;5.70;;;;;;;27.35;100.00;99697.88;5030357;28;20033;-81
2023/06/19 11:27:03;;;;;;;6.53;5.93;;;;;;;27.37;100.00;99695.75;5030848;28;20096;-81
2023/06/19 11:29:33;;;;;;;5.95;5.55;;;;;;;27.46;100.00;99695.06;5030273;28;20048;-81
2023/06/19 11:32:14;;;;;;;5.72;5.25;;;;;;;27.53;100.00;99684.91;5029118;28;20057;-82
2023/06/19 11:34:40;;;;;;;5.57;5.13;;;;;;;27.62;100.00;99690.75;5025341;28;20079;-82
2023/06/19 11:37:17;;;;;;;5.63;5.13;;;;;;;27.66;100.00;99684.56;5030565;28;20137;-81
2023/06/19 11:39:44;;;;;;;5.93;5.43;;;;;;;27.69;100.00;99677.78;5025606;28;20113;-81
2023/06/19 11:42:10;;;;;;;6.63;5.88;;;;;;;27.74;100.00;99679.78;5012998;28;20042;-81
2023/06/19 11:44:55;;;;;;;5.88;5.28;;;;;;;27.75;100.00;99671.38;5029706;28;20026;-81
2023/06/19 11:47:21;;;;;;;6.15;5.55;;;;;;;27.83;100.00;99679.06;5043572;28;20385;-81
2023/06/19 11:49:51;;;;;;;5.45;5.05;;;;;;;27.89;100.00;99669.94;5030147;28;20037;-82
2023/06/19 11:52:16;;;;;;;5.57;5.10;;;;;;;27.93;100.00;99662.91;5030477;28;20087;-79
2023/06/19 11:54:42;;;;;;;7.43;5.35;;;;;;;28.01;100.00;99664.38;5029806;28;20065;-81
2023/06/19 11:57:12;;;;;;;6.85;4.68;;;;;;;28.09;100.00;99653.91;5030398;28;20436;-81
2023/06/19 11:59:38;;;;;;;;;;;;;;;28.17;100.00;99651.81;5027858;28;20485;-80
2023/06/19 12:02:05;;;;;;;5.38;4.97;;;;;;;28.23;100.00;99646.19;5030241;28;20011;-81
2023/06/19 12:04:30;;;;;;;5.03;4.63;;;;;;;28.34;100.00;99647.13;5030266;28;20495;-81
2023/06/19 12:06:55;;;;;;;5.68;5.10;;;;;;;28.41;100.00;99648.56;5030256;28;19964;-81
2023/06/19 12:09:21;;;;;;;;;;;;;;;28.44;100.00;99648.06;5030181;28;20047;-81
2023/06/19 12:11:46;;;;;;;;;;;;;;;28.52;100.00;99649.47;5030277;28;19917;-80
2023/06/19 12:14:12;;;;;;;;;;;;;;;28.66;100.00;99645.25;5030593;28;19917;-81
2023/06/19 12:16:38;;;;;;;;;;;;;;;28.87;100.00;99641.66;5024951;28;20376;-81
2023/06/19 12:19:03;;;;;;;;;;;;;;;29.07;98.86;99638.28;5029191;28;19924;-81
2023/06/19 12:21:29;;;;;;;;;;;;;;;29.27;98.88;99633.00;5025791;28;20015;-83
2023/06/19 12:23:54;;;;;;;;;;;;;;;29.51;98.02;99624.44;5027706;28;19980;-81
2023/06/19 12:26:20;;;;;;;;;;;;;;;29.75;96.19;99630.25;5027036;28;19917;-82
2023/06/19 12:28:45;;;;;;;;;;;;;;;29.86;96.11;99621.03;5029935;28;19921;-81